Time;durP1;ratioP1;P1;durP2;ratioP2;P2;SDS_P1;SDS_P2;PMS_P1;PMS_P2;Temp;Humidity;BMP_temperature;BMP_pressure;BME280_temperature;BME280_humidity;BME280_pressure;Samples;Min_cycle;Max_cycle;Signal;HPM_P1;HPM_P2
2021/11/29 06:13:59;;;;;;;14.68;9.90;;;;;;;-0.85;85.00;98341.44;4984640;28;105896;-67
2021/11/29 06:16:25;;;;;;;11.63;7.47;;;;;;;-0.80;85.24;98348.88;4985951;28;105973;-76
2021/11/29 06:18:50;;;;;;;15.20;9.07;;;;;;;-0.76;85.09;98343.22;4985395;28;106541;-72
2021/11/29 06:21:16;;;;;;;13.18;8.57;;;;;;;-0.70;85.33;98355.72;4985320;28;106026;-72
2021/11/29 06:23:41;;;;;;;20.35;10.68;;;;;;;-0.63;85.34;98352.53;4985267;28;106736;-73
2021/11/29 06:26:06;;;;;;;17.90;9.57;;;;;;;-0.57;85.76;98351.97;4985519;28;106058;-75
2021/11/29 06:28:32;;;;;;;16.17;9.73;;;;;;;-0.53;85.51;98363.78;4985823;28;106172;-75
2021/11/29 06:30:58;;;;;;;18.63;9.15;;;;;;;-0.49;85.57;98357.28;4985617;28;106417;-70
2021/11/29 06:33:24;;;;;;;17.88;9.90;;;;;;;-0.46;85.37;98362.22;4985114;28;106062;-76
2021/11/29 06:35:56;;;;;;;16.65;9.50;;;;;;;-0.40;85.88;98364.25;4986236;28;106157;-73
2021/11/29 06:38:22;;;;;;;14.68;9.10;;;;;;;-0.37;85.22;98366.59;4985551;28;106180;-75
2021/11/29 06:40:49;;;;;;;16.65;9.48;;;;;;;-0.34;85.24;98370.72;4985048;28;105925;-74
2021/11/29 06:43:21;;;;;;;16.10;8.85;;;;;;;-0.32;85.70;98373.19;4984785;28;106210;-74
2021/11/29 06:45:46;;;;;;;14.32;8.65;;;;;;;-0.31;85.24;98373.03;4985868;28;106114;-74
2021/11/29 06:48:12;;;;;;;15.10;9.63;;;;;;;-0.29;85.16;98370.28;4985162;28;106120;-74
2021/11/29 06:50:37;;;;;;;17.05;10.18;;;;;;;-0.32;85.15;98374.00;4983529;28;106037;-70
2021/11/29 06:53:03;;;;;;;16.63;9.45;;;;;;;-0.27;85.19;98381.44;4984605;28;106206;-69
2021/11/29 06:55:29;;;;;;;17.08;9.00;;;;;;;-0.27;85.07;98366.53;4985540;28;105970;-68
2021/11/29 06:57:55;;;;;;;16.23;10.38;;;;;;;-0.25;85.34;98379.47;4985095;28;106274;-74
2021/11/29 07:00:23;;;;;;;17.45;9.43;;;;;;;-0.24;85.33;98383.75;4983900;28;106057;-73
2021/11/29 07:02:48;;;;;;;16.02;10.13;;;;;;;-0.23;85.18;98388.84;4984498;28;106086;-74
2021/11/29 07:05:14;;;;;;;19.17;9.88;;;;;;;-0.20;85.39;98392.97;4984764;28;106021;-74
2021/11/29 07:07:41;;;;;;;16.98;9.85;;;;;;;-0.17;85.02;98400.50;4975100;28;106145;-65
2021/11/29 07:10:08;;;;;;;18.88;10.25;;;;;;;-0.18;85.44;98407.56;4964281;28;106019;-69
2021/11/29 07:12:34;;;;;;;17.65;10.68;;;;;;;-0.17;84.94;98413.59;4963172;28;105962;-69
2021/11/29 07:15:00;;;;;;;17.02;10.00;;;;;;;-0.13;84.97;98408.91;4964387;28;105884;-75
2021/11/29 07:17:26;;;;;;;18.85;11.57;;;;;;;-0.12;84.95;98400.91;4964367;28;105868;-73
2021/11/29 07:19:54;;;;;;;19.23;10.20;;;;;;;-0.13;85.08;98420.19;4963960;28;105931;-69
2021/11/29 07:22:20;;;;;;;22.38;10.23;;;;;;;-0.13;85.18;98414.97;4962830;28;106917;-69
2021/11/29 07:24:48;;;;;;;14.00;9.75;;;;;;;-0.10;85.28;98416.47;4954674;28;105990;-71
2021/11/29 07:27:13;;;;;;;21.48;10.73;;;;;;;-0.06;85.10;98409.97;4951364;28;105940;-69
2021/11/29 07:29:39;;;;;;;19.65;11.07;;;;;;;-0.07;85.16;98411.78;4950567;28;105913;-74
2021/11/29 07:32:04;;;;;;;20.00;10.80;;;;;;;-0.06;85.34;98428.28;4950763;28;106061;-80
2021/11/29 07:34:30;;;;;;;19.50;10.82;;;;;;;-0.04;84.89;98416.72;4951478;28;105905;-78
2021/11/29 07:36:55;;;;;;;16.58;8.63;;;;;;;-0.01;84.65;98416.41;4951409;28;106233;-72
2021/11/29 07:39:21;;;;;;;18.15;10.02;;;;;;;0.02;84.70;98420.53;4951500;28;105959;-73
2021/11/29 07:41:46;;;;;;;19.23;9.82;;;;;;;0.02;84.49;98424.94;4950346;28;106023;-76
2021/11/29 07:44:11;;;;;;;15.05;9.23;;;;;;;0.05;84.85;98429.88;4952285;28;105821;-69
2021/11/29 07:46:37;;;;;;;19.55;10.05;;;;;;;0.06;84.77;98426.31;4951251;28;106117;-70
2021/11/29 07:49:03;;;;;;;19.70;10.02;;;;;;;0.13;84.55;98438.66;4950601;28;107199;-77
2021/11/29 07:51:30;;;;;;;18.63;9.32;;;;;;;0.21;84.62;98445.78;4950747;28;106141;-74
2021/11/29 07:53:56;;;;;;;19.92;10.38;;;;;;;0.30;84.49;98450.16;4950760;28;107329;-68
2021/11/29 07:56:21;;;;;;;19.17;10.30;;;;;;;0.37;84.69;98454.78;4950919;28;106134;-79
2021/11/29 07:58:47;;;;;;;15.93;9.23;;;;;;;0.38;84.74;98445.97;4950827;28;105817;-77
2021/11/29 08:01:13;;;;;;;19.27;9.27;;;;;;;0.39;84.35;98452.84;4951637;28;105858;-82
2021/11/29 08:03:39;;;;;;;16.10;8.95;;;;;;;0.37;84.16;98444.28;4951141;28;105812;-73
2021/11/29 08:06:04;;;;;;;15.85;8.98;;;;;;;0.33;83.99;98456.88;4950242;28;106228;-72
2021/11/29 08:08:30;;;;;;;16.15;9.60;;;;;;;0.27;83.87;98458.28;4948759;28;106354;-70
2021/11/29 08:10:56;;;;;;;14.63;9.07;;;;;;;0.26;84.10;98464.50;4948998;28;106228;-71
2021/11/29 08:13:21;;;;;;;19.25;10.77;;;;;;;0.28;84.24;98467.78;4948188;28;106078;-71
2021/11/29 08:15:47;;;;;;;21.77;9.65;;;;;;;0.26;84.04;98468.91;4946252;28;106774;-68
2021/11/29 08:18:13;;;;;;;19.40;10.85;;;;;;;0.27;83.91;98474.00;4948338;28;106101;-70
2021/11/29 08:20:39;;;;;;;25.58;11.43;;;;;;;0.23;83.85;98470.00;4947124;28;106552;-68
2021/11/29 08:23:05;;;;;;;15.85;9.15;;;;;;;0.21;83.92;98471.97;4950328;28;105979;-69
2021/11/29 08:25:30;;;;;;;17.33;10.57;;;;;;;0.21;83.85;98477.22;4953533;28;106425;-70
2021/11/29 08:27:56;;;;;;;21.45;10.13;;;;;;;0.23;83.83;98483.09;4949755;28;106644;-69
2021/11/29 08:30:24;;;;;;;17.40;10.40;;;;;;;0.25;83.87;98483.81;4949483;28;106014;-70
2021/11/29 08:32:54;;;;;;;20.67;9.68;;;;;;;0.28;83.64;98490.53;4948790;28;106437;-71
2021/11/29 08:35:20;;;;;;;21.10;11.02;;;;;;;0.31;83.89;98490.25;4949548;28;106142;-69
2021/11/29 08:37:49;;;;;;;19.92;11.77;;;;;;;0.35;83.70;98493.41;4949516;28;106723;-73
2021/11/29 08:40:16;;;;;;;12.60;7.15;;;;;;;0.35;83.72;98499.47;4953358;28;106113;-76
2021/11/29 08:42:42;;;;;;;19.13;11.05;;;;;;;0.39;83.82;98506.06;4961269;28;105865;-72
2021/11/29 08:45:08;;;;;;;15.23;9.52;;;;;;;0.43;83.91;98494.31;4959439;28;106263;-73
2021/11/29 08:47:33;;;;;;;20.63;10.40;;;;;;;0.52;83.84;98503.09;4959716;28;106623;-74
2021/11/29 08:49:59;;;;;;;18.90;10.65;;;;;;;0.61;83.92;98504.81;4957025;28;107416;-76
2021/11/29 08:52:26;;;;;;;15.80;10.77;;;;;;;0.70;83.74;98499.66;4957605;28;106024;-68
2021/11/29 08:54:52;;;;;;;34.55;16.45;;;;;;;0.81;83.76;98502.09;4951536;28;106180;-71
2021/11/29 08:57:18;;;;;;;18.20;10.55;;;;;;;0.96;83.47;98502.38;4967380;28;106068;-73
2021/11/29 08:59:43;;;;;;;21.13;10.85;;;;;;;1.30;83.69;98505.13;4955453;28;107362;-70
2021/11/29 09:02:09;;;;;;;19.77;10.25;;;;;;;1.48;83.34;98512.16;4951591;28;106079;-71
2021/11/29 09:04:34;;;;;;;18.08;10.40;;;;;;;1.62;83.86;98516.00;4957570;28;106478;-82
2021/11/29 09:07:00;;;;;;;19.10;10.90;;;;;;;1.66;83.09;98510.28;4957721;28;106099;-73
2021/11/29 09:09:27;;;;;;;21.67;12.00;;;;;;;1.67;82.88;98525.06;4950317;28;106496;-70
2021/11/29 09:11:53;;;;;;;19.92;11.23;;;;;;;1.62;82.32;98508.94;4948073;28;106083;-73
2021/11/29 09:14:18;;;;;;;18.80;11.40;;;;;;;1.58;82.41;98517.28;4947591;28;106129;-76
2021/11/29 09:16:44;;;;;;;20.67;10.88;;;;;;;1.50;82.43;98518.88;4948070;28;106206;-66
2021/11/29 09:19:09;;;;;;;21.08;11.13;;;;;;;1.47;82.14;98527.03;4963436;28;106039;-76
2021/11/29 09:21:35;;;;;;;22.50;12.30;;;;;;;1.45;82.32;98528.16;4967841;28;106636;-84
2021/11/29 09:24:01;;;;;;;22.50;11.90;;;;;;;1.42;82.20;98529.31;4967646;28;106325;-74
2021/11/29 09:26:27;;;;;;;21.77;11.68;;;;;;;1.41;82.16;98526.81;4967110;28;106088;-73
2021/11/29 09:28:53;;;;;;;21.17;11.20;;;;;;;1.43;82.59;98525.69;4966883;28;106020;-76
2021/11/29 09:31:19;;;;;;;19.92;12.18;;;;;;;1.50;82.26;98521.50;4967875;28;106160;-75
2021/11/29 09:33:45;;;;;;;21.95;12.88;;;;;;;1.57;82.68;98524.31;4966664;28;106007;-74
2021/11/29 09:36:11;;;;;;;22.67;12.07;;;;;;;1.68;82.69;98516.22;4967165;28;106043;-77
2021/11/29 09:38:36;;;;;;;27.00;13.25;;;;;;;1.79;82.35;98506.41;4968200;28;106014;-74
2021/11/29 09:41:03;;;;;;;27.35;13.80;;;;;;;1.91;82.43;98513.06;4967909;28;106283;-77
2021/11/29 09:43:29;;;;;;;25.85;12.50;;;;;;;1.96;82.16;98510.78;4966983;28;106718;-77
2021/11/29 09:45:55;;;;;;;22.27;12.88;;;;;;;2.01;82.03;98508.53;4967246;28;105937;-78
2021/11/29 09:48:21;;;;;;;22.25;12.60;;;;;;;1.97;81.67;98514.22;4968587;28;105998;-81
2021/11/29 09:50:50;;;;;;;21.30;12.73;;;;;;;1.98;81.64;98508.84;4969697;28;106115;-76
2021/11/29 09:53:18;;;;;;;23.35;11.93;;;;;;;1.95;81.68;98513.56;4967441;28;106711;-77
2021/11/29 09:55:44;;;;;;;27.67;14.00;;;;;;;1.93;81.56;98513.72;4966502;28;105998;-76
2021/11/29 09:58:10;;;;;;;25.70;14.57;;;;;;;1.86;81.00;98515.34;4967183;28;105957;-82
2021/11/29 10:00:42;;;;;;;25.83;13.38;;;;;;;1.80;81.56;98521.19;4967630;28;106117;-74
2021/11/29 10:03:08;;;;;;;27.85;13.18;;;;;;;1.75;81.05;98518.22;4966950;28;105993;-78
2021/11/29 10:05:35;;;;;;;22.08;12.02;;;;;;;1.70;81.27;98516.06;4966182;28;106633;-74
2021/11/29 10:08:19;;;;;;;20.58;11.85;;;;;;;1.69;81.63;98509.16;4957368;28;106478;-74
2021/11/29 10:10:54;;;;;;;23.33;12.52;;;;;;;1.69;81.24;98510.00;4955927;28;106272;-74
2021/11/29 10:13:21;;;;;;;25.17;12.52;;;;;;;1.70;81.55;98508.19;4967664;28;106023;-72
2021/11/29 10:15:48;;;;;;;24.92;12.77;;;;;;;1.72;81.48;98508.03;4967776;28;105968;-72
2021/11/29 10:18:19;;;;;;;21.15;11.02;;;;;;;1.71;81.31;98506.38;4968467;28;106126;-69
2021/11/29 10:20:54;;;;;;;21.90;10.88;;;;;;;1.67;81.04;98516.38;4966964;28;106046;-71
2021/11/29 10:23:36;;;;;;;24.10;11.77;;;;;;;1.61;81.12;98511.72;4967808;28;105998;-68
2021/11/29 10:26:06;;;;;;;19.52;10.73;;;;;;;1.59;81.54;98500.56;4968194;28;105878;-73
2021/11/29 10:28:36;;;;;;;23.10;12.00;;;;;;;1.59;81.32;98509.25;4967750;28;106104;-76
2021/11/29 10:31:07;;;;;;;17.20;9.48;;;;;;;1.57;80.79;98511.19;4968441;28;106061;-79
2021/11/29 10:33:33;;;;;;;18.75;10.93;;;;;;;1.57;81.19;98513.81;4967820;28;106121;-74
2021/11/29 10:36:18;;;;;;;23.15;10.43;;;;;;;1.58;81.34;98504.97;4967973;28;106284;-75
2021/11/29 10:38:49;;;;;;;19.77;11.15;;;;;;;1.55;81.28;98510.53;4967717;28;105977;-78
2021/11/29 10:41:18;;;;;;;;;;;;;;;1.54;80.83;98515.94;4969222;28;106127;-75
2021/11/29 10:43:44;;;;;;;13.07;7.78;;;;;;;1.54;80.99;98516.75;4967797;28;106159;-74
2021/11/29 10:46:32;;;;;;;19.00;10.82;;;;;;;1.57;81.14;98515.63;4967318;28;106354;-74
2021/11/29 10:49:03;;;;;;;21.23;10.30;;;;;;;1.58;80.93;98512.84;4961795;28;107216;-73
2021/11/29 10:51:29;;;;;;;20.15;10.98;;;;;;;1.58;80.61;98509.41;4965953;28;106482;-75
2021/11/29 10:53:54;;;;;;;16.83;10.45;;;;;;;1.57;80.84;98513.00;4965437;28;106370;-78
2021/11/29 10:56:21;;;;;;;12.10;6.57;;;;;;;1.60;80.97;98512.69;4964994;28;107592;-77
2021/11/29 10:58:49;;;;;;;16.15;9.10;;;;;;;1.58;80.68;98515.47;4964420;28;106397;-74
2021/11/29 11:01:16;;;;;;;17.50;10.02;;;;;;;1.55;80.57;98518.41;4969894;28;105976;-80
2021/11/29 11:03:56;;;;;;;19.00;11.02;;;;;;;1.57;80.79;98521.69;4970700;28;106167;-70
2021/11/29 11:06:44;;;;;;;20.23;9.38;;;;;;;1.56;80.73;98520.06;4970193;28;106430;-68
2021/11/29 11:09:12;;;;;;;20.95;10.80;;;;;;;1.55;80.38;98518.41;4970195;28;106053;-72
2021/11/29 11:11:41;;;;;;;18.33;10.70;;;;;;;1.54;80.46;98522.00;4971049;28;106271;-74
2021/11/29 11:14:11;;;;;;;17.83;10.32;;;;;;;1.56;80.48;98529.72;4971057;28;105954;-74
2021/11/29 11:16:44;;;;;;;18.60;11.48;;;;;;;1.59;80.95;98530.25;4970300;28;106092;-73
2021/11/29 11:19:11;;;;;;;21.38;11.15;;;;;;;1.63;81.05;98528.16;4970352;28;105913;-68
2021/11/29 11:21:36;;;;;;;20.60;11.13;;;;;;;1.62;80.35;98529.13;4971334;28;105966;-71
2021/11/29 11:24:20;;;;;;;21.45;11.30;;;;;;;1.60;80.65;98531.91;4971154;28;105906;-70
2021/11/29 11:26:48;;;;;;;20.25;10.02;;;;;;;1.59;80.58;98530.25;4970353;28;105987;-68
2021/11/29 11:29:15;;;;;;;20.00;10.88;;;;;;;1.59;80.38;98530.25;4970512;28;106018;-71
2021/11/29 11:31:40;;;;;;;17.27;9.80;;;;;;;1.62;80.72;98523.88;4971338;28;105927;-71
2021/11/29 11:34:06;;;;;;;20.08;10.02;;;;;;;1.75;80.76;98523.47;4970966;28;106133;-67
2021/11/29 11:36:31;;;;;;;18.50;8.75;;;;;;;1.91;80.93;98523.56;4969818;28;106252;-71
2021/11/29 11:39:04;;;;;;;19.40;9.85;;;;;;;2.04;80.42;98528.41;4970035;28;106016;-70
2021/11/29 11:41:32;;;;;;;14.40;8.68;;;;;;;2.32;80.50;98523.78;4971088;28;106094;-69
2021/11/29 11:43:59;;;;;;;17.75;9.25;;;;;;;2.50;80.33;98526.31;4970098;28;106298;-74
2021/11/29 11:46:28;;;;;;;16.00;8.63;;;;;;;2.50;79.88;98528.09;4970140;28;106271;-71
2021/11/29 11:48:56;;;;;;;17.80;9.02;;;;;;;2.45;79.57;98535.66;4969740;28;106023;-70
2021/11/29 11:51:22;;;;;;;16.23;8.98;;;;;;;2.36;79.28;98534.78;4970547;28;105944;-74
2021/11/29 11:53:47;;;;;;;16.08;9.45;;;;;;;2.28;79.31;98540.81;4970030;28;106011;-72
2021/11/29 11:56:12;;;;;;;15.85;8.80;;;;;;;2.28;79.50;98527.66;4963255;28;106869;-71
2021/11/29 11:58:46;;;;;;;16.30;9.57;;;;;;;2.30;79.38;98544.13;4983860;28;106848;-69
2021/11/29 12:01:15;;;;;;;10.98;7.00;;;;;;;2.29;79.33;98546.91;4962270;28;106070;-70
2021/11/29 12:03:46;;;;;;;20.40;10.10;;;;;;;2.22;79.28;98545.91;4962054;28;106255;-70
2021/11/29 12:06:14;;;;;;;;;;;;;;;2.16;79.56;98537.66;4959359;28;106080;-74
2021/11/29 12:08:47;;;;;;;25.98;14.73;;;;;;;2.13;79.29;98547.66;4958948;28;106118;-68
2021/11/29 12:11:27;;;;;;;17.92;9.98;;;;;;;2.06;79.29;98542.19;4959559;28;105949;-77
2021/11/29 12:14:08;;;;;;;20.48;10.02;;;;;;;2.05;79.62;98545.81;4958906;28;106245;-73
2021/11/29 12:16:43;;;;;;;19.50;9.73;;;;;;;2.06;79.52;98551.88;4958307;28;105862;-73
2021/11/29 12:19:27;;;;;;;21.70;10.63;;;;;;;2.09;79.58;98551.56;4958364;28;106313;-77
2021/11/29 12:22:15;;;;;;;20.10;9.13;;;;;;;2.13;79.21;98547.66;4959659;28;106027;-76
2021/11/29 12:25:13;;;;;;;20.45;10.80;;;;;;;2.13;79.18;98550.28;4958006;28;106061;-77
2021/11/29 12:27:43;;;;;;;18.83;10.15;;;;;;;2.10;79.24;98550.59;4955659;28;106458;-70
2021/11/29 12:30:09;;;;;;;17.23;10.50;;;;;;;2.01;78.96;98550.53;4958017;28;106507;-79
2021/11/29 12:32:50;;;;;;;20.17;9.43;;;;;;;1.95;79.16;98548.53;4961625;28;105914;-75
2021/11/29 12:35:29;;;;;;;18.10;10.13;;;;;;;1.89;79.09;98551.78;4957556;28;106573;-72
2021/11/29 12:38:02;;;;;;;17.85;10.18;;;;;;;1.77;79.34;98556.47;4959372;28;106340;-71
2021/11/29 12:40:41;;;;;;;17.92;11.13;;;;;;;1.71;79.13;98569.38;4958396;28;105923;-72
2021/11/29 12:43:06;;;;;;;19.77;10.52;;;;;;;1.61;79.00;98554.53;4959651;28;106431;-73
2021/11/29 12:45:34;;;;;;;20.02;10.52;;;;;;;1.60;79.47;98558.16;4958674;28;106206;-71
2021/11/29 12:48:10;;;;;;;20.40;10.02;;;;;;;1.68;79.76;98565.25;4957700;28;106104;-75
2021/11/29 12:50:46;;;;;;;19.63;11.18;;;;;;;1.73;79.87;98562.19;4959044;28;106426;-74
2021/11/29 12:53:15;;;;;;;23.15;10.80;;;;;;;1.79;79.59;98558.94;4959200;28;105974;-74
2021/11/29 12:55:43;;;;;;;20.08;10.23;;;;;;;1.91;79.75;98560.31;4955218;28;105947;-74
2021/11/29 12:58:17;;;;;;;18.52;10.38;;;;;;;1.95;80.02;98566.91;4948946;28;105909;-74
2021/11/29 13:00:46;;;;;;;21.63;10.38;;;;;;;1.95;79.47;98571.34;4948970;28;106015;-75
2021/11/29 13:03:13;;;;;;;17.67;9.95;;;;;;;1.98;79.25;98565.78;4947838;28;106163;-75
2021/11/29 13:05:44;;;;;;;16.45;9.02;;;;;;;2.32;79.88;98563.19;4949954;28;106248;-75
2021/11/29 13:08:20;;;;;;;;;;;;;;;3.40;81.30;98569.53;4949926;28;106770;-76
2021/11/29 13:10:58;;;;;;;12.25;7.72;;;;;;;3.52;78.06;98565.56;4949704;28;106348;-76
2021/11/29 13:13:23;;;;;;;16.50;9.15;;;;;;;3.07;77.35;98576.56;4948352;28;106004;-76
2021/11/29 13:15:50;;;;;;;13.35;7.68;;;;;;;2.79;77.71;98582.91;4949548;28;106321;-74
2021/11/29 13:18:53;;;;;;;14.82;7.80;;;;;;;2.51;77.95;98577.06;4949571;28;106202;-73
2021/11/29 13:21:42;;;;;;;16.90;9.27;;;;;;;2.26;78.03;98576.94;4948991;28;105852;-73
2021/11/29 13:24:07;;;;;;;16.98;8.77;;;;;;;2.10;77.90;98582.94;4949945;28;106417;-73
2021/11/29 13:26:55;;;;;;;18.33;9.85;;;;;;;1.94;78.20;98575.78;4949234;28;106075;-73
2021/11/29 13:29:41;;;;;;;19.65;10.30;;;;;;;1.84;78.52;98586.38;4947892;28;106291;-80
2021/11/29 13:32:10;;;;;;;17.48;9.55;;;;;;;1.78;78.67;98584.38;4948293;28;105842;-74
2021/11/29 13:34:37;;;;;;;18.45;9.68;;;;;;;1.72;78.71;98589.41;4949553;28;106174;-74
2021/11/29 13:37:08;;;;;;;17.13;10.40;;;;;;;1.67;78.84;98590.69;4948786;28;106542;-72
2021/11/29 13:39:37;;;;;;;20.55;10.77;;;;;;;1.63;79.12;98591.97;4948420;28;106004;-73
2021/11/29 13:42:11;;;;;;;17.60;9.57;;;;;;;1.61;79.16;98583.41;4948630;28;105988;-72
2021/11/29 13:44:43;;;;;;;17.83;10.98;;;;;;;1.59;78.89;98585.38;4949840;28;106533;-74
2021/11/29 13:47:11;;;;;;;18.45;9.35;;;;;;;1.56;78.97;98588.31;4948704;28;105779;-75
2021/11/29 13:49:37;;;;;;;16.50;9.63;;;;;;;1.52;79.08;98592.22;4948705;28;106115;-75
2021/11/29 13:52:07;;;;;;;17.15;8.25;;;;;;;1.50;79.13;98595.00;4946935;28;107110;-73
2021/11/29 13:54:33;;;;;;;15.90;9.20;;;;;;;1.48;78.91;98604.00;4950282;28;105901;-74
2021/11/29 13:56:58;;;;;;;16.45;9.18;;;;;;;1.44;79.15;98610.53;4948940;28;106169;-77
2021/11/29 13:59:24;;;;;;;14.57;8.48;;;;;;;1.43;79.19;98612.31;4953472;28;108929;-75
2021/11/29 14:01:50;;;;;;;19.85;10.50;;;;;;;1.40;79.14;98615.22;4967518;28;105930;-73
2021/11/29 14:04:21;;;;;;;20.00;10.95;;;;;;;1.37;79.18;98610.28;4968528;28;105846;-73
2021/11/29 14:06:47;;;;;;;21.40;10.55;;;;;;;1.34;79.11;98611.41;4948626;28;106077;-72
2021/11/29 14:09:17;;;;;;;21.15;10.52;;;;;;;1.30;79.00;98620.56;4956307;28;106640;-73
2021/11/29 14:11:43;;;;;;;23.60;11.45;;;;;;;1.27;79.39;98620.03;4958302;28;106276;-70
2021/11/29 14:14:11;;;;;;;19.50;10.52;;;;;;;1.25;79.25;98617.56;4965435;28;105905;-72
2021/11/29 14:16:49;;;;;;;18.27;10.88;;;;;;;1.22;78.99;98617.00;4957285;28;105907;-71
2021/11/29 14:19:15;;;;;;;23.63;11.02;;;;;;;1.18;79.39;98622.56;4947611;28;106743;-72
2021/11/29 14:21:49;;;;;;;20.20;9.80;;;;;;;1.17;79.00;98630.59;4954831;28;106074;-72
2021/11/29 14:24:19;;;;;;;19.63;11.63;;;;;;;1.16;79.39;98640.25;4961688;28;106351;-70
2021/11/29 14:26:49;;;;;;;21.92;11.45;;;;;;;1.15;79.42;98648.28;4948266;28;106169;-72
2021/11/29 14:29:18;;;;;;;21.27;12.20;;;;;;;1.12;79.58;98648.56;4954662;28;105962;-70
2021/11/29 14:48:46;;;;;;;19.48;11.10;;;;;;;0.71;79.36;98666.44;5023934;28;107212;-72
2021/11/29 14:51:12;;;;;;;21.40;10.73;;;;;;;0.67;79.67;98677.22;5023345;28;106746;-72
2021/11/29 14:53:41;;;;;;;18.42;10.10;;;;;;;0.70;79.74;98670.88;5022403;28;105860;-72
2021/11/29 14:56:06;;;;;;;21.33;10.23;;;;;;;0.71;80.04;98675.16;5022324;27;106117;-71
2021/11/29 14:58:33;;;;;;;24.75;11.55;;;;;;;0.74;80.16;98676.63;5022571;28;106472;-69
2021/11/29 15:01:02;;;;;;;22.38;11.73;;;;;;;0.80;80.50;98676.88;5023426;28;106191;-71
2021/11/29 15:03:34;;;;;;;26.90;13.60;;;;;;;0.85;80.27;98679.09;5022654;28;106013;-70
2021/11/29 15:06:24;;;;;;;22.63;11.23;;;;;;;0.94;80.41;98678.19;5022681;28;106454;-67
2021/11/29 15:09:08;;;;;;;20.27;10.90;;;;;;;1.01;80.40;98687.16;5021696;28;106471;-70
2021/11/29 15:11:40;;;;;;;21.98;12.07;;;;;;;1.09;80.31;98686.41;5019542;27;106429;-77
2021/11/29 15:14:13;;;;;;;19.95;11.88;;;;;;;1.15;80.35;98691.06;5004230;28;106217;-71
2021/11/29 15:16:42;;;;;;;21.20;10.50;;;;;;;1.16;80.13;98694.50;5003860;28;106312;-72
2021/11/29 15:19:21;;;;;;;22.90;13.25;;;;;;;1.16;79.72;98694.50;5003774;28;106097;-70
2021/11/29 15:22:11;;;;;;;21.38;11.07;;;;;;;1.15;79.96;98700.75;5021524;28;105953;-71
2021/11/29 15:24:43;;;;;;;19.42;10.63;;;;;;;1.15;79.86;98700.75;5024764;27;106051;-72
2021/11/29 15:27:16;;;;;;;20.77;10.43;;;;;;;1.14;80.04;98705.16;5030889;27;106040;-73
2021/11/29 15:29:43;;;;;;;19.10;10.45;;;;;;;1.11;79.90;98709.88;5039677;27;106597;-71
2021/11/29 15:32:14;;;;;;;22.95;11.40;;;;;;;1.10;79.99;98716.91;5033195;27;106254;-69
2021/11/29 15:34:40;;;;;;;20.00;11.18;;;;;;;1.07;79.56;98713.78;5031630;27;106071;-71
2021/11/29 15:37:10;;;;;;;22.52;11.25;;;;;;;0.97;79.20;98714.63;5040466;27;106036;-73
2021/11/29 15:39:36;;;;;;;21.90;10.55;;;;;;;0.84;79.17;98716.75;5009409;27;106362;-72
2021/11/29 15:42:02;;;;;;;21.98;11.68;;;;;;;0.69;79.13;98720.81;5037390;27;105908;-74
2021/11/29 15:44:29;;;;;;;22.30;11.05;;;;;;;0.54;79.35;98729.13;5034859;27;106559;-76
2021/11/29 15:47:08;;;;;;;20.48;12.00;;;;;;;0.41;79.26;98733.84;5028375;27;106512;-76
2021/11/29 15:49:34;;;;;;;22.45;10.70;;;;;;;0.28;79.39;98734.97;5010789;27;105998;-77
2021/11/29 15:51:59;;;;;;;25.25;13.80;;;;;;;0.20;79.58;98726.97;5036082;27;106042;-74
2021/11/29 15:54:25;;;;;;;24.38;12.73;;;;;;;0.15;79.84;98734.41;5034704;27;106027;-75
2021/11/29 15:56:50;;;;;;;26.52;13.75;;;;;;;0.08;79.87;98733.31;5029202;27;106073;-73
2021/11/29 15:59:16;;;;;;;23.15;10.95;;;;;;;-0.01;79.75;98735.81;5031434;27;106080;-73
2021/11/29 16:01:41;;;;;;;25.48;13.27;;;;;;;-0.10;79.76;98752.34;5015527;28;105864;-74
2021/11/29 16:04:08;;;;;;;29.48;13.82;;;;;;;-0.17;79.83;98746.81;5021388;27;106191;-75
2021/11/29 16:06:33;;;;;;;29.95;14.57;;;;;;;-0.21;80.01;98742.81;5021558;28;106372;-75
2021/11/29 16:08:59;;;;;;;29.00;13.70;;;;;;;-0.22;80.32;98745.59;5014299;27;106596;-74
2021/11/29 16:11:27;;;;;;;30.67;14.52;;;;;;;-0.23;80.63;98746.56;5026855;28;106241;-74
2021/11/29 16:13:56;;;;;;;27.10;13.63;;;;;;;-0.24;80.69;98744.91;5016238;28;106195;-74
2021/11/29 16:16:23;;;;;;;29.30;14.98;;;;;;;-0.27;80.45;98745.19;5019147;27;106319;-75
2021/11/29 16:18:51;;;;;;;29.40;14.05;;;;;;;-0.31;80.71;98739.38;5022644;28;105908;-79
2021/11/29 16:21:17;;;;;;;23.35;13.15;;;;;;;-0.36;81.14;98742.41;5013240;27;106132;-76
2021/11/29 16:23:42;;;;;;;30.25;13.63;;;;;;;-0.40;80.56;98754.09;5020325;27;106400;-74
2021/11/29 16:26:12;;;;;;;28.73;14.63;;;;;;;-0.44;80.29;98750.09;5006291;28;106668;-74
2021/11/29 16:28:39;;;;;;;27.63;13.93;;;;;;;-0.48;80.73;98755.75;5017074;27;105941;-73
2021/11/29 16:31:05;;;;;;;27.70;13.23;;;;;;;-0.53;80.29;98762.22;5026334;28;105960;-71
2021/11/29 16:33:31;;;;;;;27.13;14.10;;;;;;;-0.55;80.92;98768.53;5013105;27;106338;-70
2021/11/29 16:35:58;;;;;;;27.58;13.82;;;;;;;-0.55;81.54;98766.75;5022747;28;106719;-75
2021/11/29 16:38:28;;;;;;;28.08;14.90;;;;;;;-0.49;81.70;98762.78;5018899;28;105984;-74
2021/11/29 16:40:58;;;;;;;30.30;15.23;;;;;;;-0.44;81.90;98759.75;5015193;27;106663;-74
2021/11/29 16:43:24;;;;;;;27.75;14.30;;;;;;;-0.44;81.28;98763.19;5026064;28;106240;-72
2021/11/29 16:45:53;;;;;;;28.30;14.27;;;;;;;-0.41;82.00;98765.56;5015590;28;106154;-74
2021/11/29 16:48:20;;;;;;;25.35;14.13;;;;;;;-0.31;81.76;98775.22;5018738;27;106290;-73
2021/11/29 16:50:47;;;;;;;37.88;17.08;;;;;;;-0.22;82.24;98771.75;5022328;28;106518;-85
2021/11/29 16:53:15;;;;;;;29.42;14.30;;;;;;;-0.11;81.80;98771.66;5012330;27;106234;-73
2021/11/29 16:55:41;;;;;;;28.23;13.85;;;;;;;-0.02;82.10;98770.00;5024560;27;106129;-73
2021/11/29 16:58:07;;;;;;;31.65;15.50;;;;;;;0.09;82.16;98776.88;5009252;28;106128;-72
2021/11/29 17:00:33;;;;;;;38.28;17.27;;;;;;;0.18;82.41;98786.53;5009817;28;106130;-75
2021/11/29 17:02:58;;;;;;;29.67;15.65;;;;;;;0.25;82.04;98784.19;5023955;28;106579;-70
2021/11/29 17:05:24;;;;;;;28.30;14.68;;;;;;;0.32;82.19;98783.47;5012022;27;106112;-71
2021/11/29 17:07:50;;;;;;;25.48;14.68;;;;;;;0.39;82.15;98793.41;5022648;27;106358;-71
2021/11/29 17:10:16;;;;;;;26.65;13.63;;;;;;;0.42;81.90;98790.50;5011378;27;106145;-73
2021/11/29 17:12:42;;;;;;;21.63;11.50;;;;;;;0.48;81.90;98782.09;5029337;27;106140;-73
2021/11/29 17:15:09;;;;;;;20.73;11.82;;;;;;;0.50;81.42;98801.13;5019563;27;105974;-77
2021/11/29 17:17:37;;;;;;;25.33;13.10;;;;;;;0.53;81.79;98803.47;5007995;28;106129;-72
2021/11/29 17:20:04;;;;;;;23.55;12.77;;;;;;;0.55;81.55;98804.16;5009160;28;105987;-71
2021/11/29 17:22:29;;;;;;;22.27;13.32;;;;;;;0.59;81.72;98810.78;5008595;28;106313;-69
2021/11/29 17:24:55;;;;;;;29.00;14.52;;;;;;;0.63;81.75;98803.44;5019672;28;105956;-74
2021/11/29 17:27:22;;;;;;;22.60;11.60;;;;;;;0.65;81.84;98810.19;5028804;27;106086;-74
2021/11/29 17:29:49;;;;;;;27.40;13.52;;;;;;;0.66;81.48;98795.31;5029234;27;105855;-70
2021/11/29 17:32:14;;;;;;;21.02;12.48;;;;;;;0.67;81.27;98802.22;5010260;27;105836;-68
2021/11/29 17:34:41;;;;;;;27.38;14.63;;;;;;;0.64;81.38;98797.22;5008242;28;105815;-75
2021/11/29 17:37:07;;;;;;;33.03;17.15;;;;;;;0.61;81.12;98810.63;5008153;28;105841;-72
2021/11/29 17:39:34;;;;;;;37.20;18.38;;;;;;;0.56;80.79;98816.31;5007213;28;106302;-72
2021/11/29 17:42:00;;;;;;;43.15;22.30;;;;;;;0.51;81.33;98813.25;5004986;28;106290;-70
2021/11/29 17:44:26;;;;;;;25.42;14.63;;;;;;;0.49;81.21;98825.66;5004672;28;106605;-72
2021/11/29 17:46:51;;;;;;;31.15;16.88;;;;;;;0.46;81.22;98825.94;5005149;28;106334;-69
2021/11/29 17:49:17;;;;;;;30.17;15.90;;;;;;;0.45;81.51;98834.78;5003998;28;106117;-78
2021/11/29 17:51:43;;;;;;;29.52;14.95;;;;;;;0.41;81.39;98833.38;5005568;28;106250;-75
2021/11/29 17:54:12;;;;;;;21.15;12.63;;;;;;;0.42;81.32;98832.44;5006482;28;106478;-78
2021/11/29 17:56:39;;;;;;;28.20;14.75;;;;;;;0.44;81.28;98833.13;5006109;28;107052;-74